sensor_id;sensor_type;location;lat;lon;timestamp;pressure;altitude;pressure_sealevel;temperature;humidity
9335;BME280;4706;41.844;26.082;2023-12-20T00:00:13;101296.56;;;6.42;77.15
9335;BME280;4706;41.844;26.082;2023-12-20T00:02:39;101286.59;;;6.53;76.20
9335;BME280;4706;41.844;26.082;2023-12-20T00:05:05;101288.19;;;6.49;76.44
9335;BME280;4706;41.844;26.082;2023-12-20T00:07:30;101275.31;;;6.44;76.02
9335;BME280;4706;41.844;26.082;2023-12-20T00:09:56;101279.31;;;6.37;76.27
9335;BME280;4706;41.844;26.082;2023-12-20T00:12:21;101281.47;;;6.35;75.75
9335;BME280;4706;41.844;26.082;2023-12-20T00:14:47;101281.34;;;6.24;75.72
9335;BME280;4706;41.844;26.082;2023-12-20T00:17:12;101282.91;;;6.20;75.92
9335;BME280;4706;41.844;26.082;2023-12-20T00:19:38;101288.91;;;6.17;75.62
9335;BME280;4706;41.844;26.082;2023-12-20T00:22:03;101291.88;;;6.16;76.05
9335;BME280;4706;41.844;26.082;2023-12-20T00:24:29;101293.97;;;6.08;75.99
9335;BME280;4706;41.844;26.082;2023-12-20T00:26:55;101278.09;;;6.05;75.16
9335;BME280;4706;41.844;26.082;2023-12-20T00:29:20;101291.00;;;6.10;75.88
9335;BME280;4706;41.844;26.082;2023-12-20T00:31:45;101267.56;;;6.14;75.84
9335;BME280;4706;41.844;26.082;2023-12-20T00:34:11;101254.69;;;6.10;75.62
9335;BME280;4706;41.844;26.082;2023-12-20T00:36:36;101266.75;;;6.14;75.81
9335;BME280;4706;41.844;26.082;2023-12-20T00:39:02;101268.13;;;6.16;75.67
9335;BME280;4706;41.844;26.082;2023-12-20T00:41:27;101272.25;;;6.19;75.40
9335;BME280;4706;41.844;26.082;2023-12-20T00:43:53;101253.72;;;6.21;74.99
9335;BME280;4706;41.844;26.082;2023-12-20T00:46:19;101249.81;;;6.17;75.11
9335;BME280;4706;41.844;26.082;2023-12-20T00:48:44;101267.06;;;6.17;75.06
9335;BME280;4706;41.844;26.082;2023-12-20T00:51:11;101260.47;;;6.13;75.54
9335;BME280;4706;41.844;26.082;2023-12-20T00:53:36;101256.56;;;6.09;74.42
9335;BME280;4706;41.844;26.082;2023-12-20T00:56:02;101255.81;;;6.14;74.53
9335;BME280;4706;41.844;26.082;2023-12-20T00:58:27;101252.81;;;6.15;74.39
9335;BME280;4706;41.844;26.082;2023-12-20T01:00:53;101257.13;;;6.11;75.49
9335;BME280;4706;41.844;26.082;2023-12-20T01:03:19;101261.00;;;6.15;74.89
9335;BME280;4706;41.844;26.082;2023-12-20T01:05:44;101250.34;;;6.14;74.98
9335;BME280;4706;41.844;26.082;2023-12-20T01:08:10;101251.41;;;6.13;74.12
9335;BME280;4706;41.844;26.082;2023-12-20T01:10:35;101229.78;;;6.06;74.43
9335;BME280;4706;41.844;26.082;2023-12-20T01:13:01;101231.97;;;6.09;74.41
9335;BME280;4706;41.844;26.082;2023-12-20T01:15:26;101229.25;;;6.09;74.96
9335;BME280;4706;41.844;26.082;2023-12-20T01:17:52;101227.38;;;6.10;74.60
9335;BME280;4706;41.844;26.082;2023-12-20T01:20:17;101223.53;;;6.11;74.34
9335;BME280;4706;41.844;26.082;2023-12-20T01:22:45;101215.34;;;6.11;74.56
9335;BME280;4706;41.844;26.082;2023-12-20T01:25:11;101215.59;;;6.09;75.04
9335;BME280;4706;41.844;26.082;2023-12-20T01:27:37;101200.47;;;6.01;75.14
9335;BME280;4706;41.844;26.082;2023-12-20T01:30:03;101203.78;;;6.03;75.10
9335;BME280;4706;41.844;26.082;2023-12-20T01:32:29;101202.19;;;6.07;75.44
9335;BME280;4706;41.844;26.082;2023-12-20T01:34:55;101188.50;;;6.02;75.50
9335;BME280;4706;41.844;26.082;2023-12-20T01:37:20;101204.16;;;6.12;74.93
9335;BME280;4706;41.844;26.082;2023-12-20T01:39:46;101197.06;;;6.11;75.41
9335;BME280;4706;41.844;26.082;2023-12-20T01:42:11;101176.53;;;6.08;75.31
9335;BME280;4706;41.844;26.082;2023-12-20T01:44:37;101175.72;;;6.08;75.38
9335;BME280;4706;41.844;26.082;2023-12-20T01:47:02;101169.94;;;6.04;75.29
9335;BME280;4706;41.844;26.082;2023-12-20T01:49:28;101166.88;;;6.01;75.58
9335;BME280;4706;41.844;26.082;2023-12-20T01:51:54;101159.63;;;5.90;75.75
9335;BME280;4706;41.844;26.082;2023-12-20T01:54:20;101163.53;;;5.94;75.93
9335;BME280;4706;41.844;26.082;2023-12-20T01:56:46;101173.22;;;5.84;75.16
9335;BME280;4706;41.844;26.082;2023-12-20T01:59:12;101170.69;;;5.78;75.65
9335;BME280;4706;41.844;26.082;2023-12-20T02:01:38;101166.81;;;5.74;75.06
9335;BME280;4706;41.844;26.082;2023-12-20T02:04:03;101165.69;;;5.70;75.37
9335;BME280;4706;41.844;26.082;2023-12-20T02:06:30;101154.13;;;5.63;75.83
9335;BME280;4706;41.844;26.082;2023-12-20T02:08:57;101154.41;;;5.44;75.81
9335;BME280;4706;41.844;26.082;2023-12-20T02:11:23;101161.34;;;5.52;76.02
9335;BME280;4706;41.844;26.082;2023-12-20T02:13:50;101157.28;;;5.54;76.58
9335;BME280;4706;41.844;26.082;2023-12-20T02:16:15;101159.44;;;5.52;76.91
9335;BME280;4706;41.844;26.082;2023-12-20T02:18:42;101142.69;;;5.44;76.87
9335;BME280;4706;41.844;26.082;2023-12-20T02:21:09;101152.00;;;5.48;77.39
9335;BME280;4706;41.844;26.082;2023-12-20T02:23:35;101140.53;;;5.46;77.70
9335;BME280;4706;41.844;26.082;2023-12-20T02:26:00;101148.53;;;5.52;77.90
9335;BME280;4706;41.844;26.082;2023-12-20T02:28:26;101139.34;;;5.58;77.74
9335;BME280;4706;41.844;26.082;2023-12-20T02:30:52;101137.44;;;5.59;77.58
9335;BME280;4706;41.844;26.082;2023-12-20T02:33:17;101144.53;;;5.60;78.05
9335;BME280;4706;41.844;26.082;2023-12-20T02:35:43;101144.53;;;5.60;77.79
9335;BME280;4706;41.844;26.082;2023-12-20T02:38:08;101134.69;;;5.59;78.04
9335;BME280;4706;41.844;26.082;2023-12-20T02:40:34;101126.00;;;5.62;78.13
9335;BME280;4706;41.844;26.082;2023-12-20T02:42:59;101125.25;;;5.67;78.39
9335;BME280;4706;41.844;26.082;2023-12-20T02:45:26;101114.19;;;5.56;78.24
9335;BME280;4706;41.844;26.082;2023-12-20T02:47:51;101129.81;;;5.61;77.54
9335;BME280;4706;41.844;26.082;2023-12-20T02:50:17;101121.06;;;5.59;77.34
9335;BME280;4706;41.844;26.082;2023-12-20T02:52:45;101103.84;;;5.58;77.52
9335;BME280;4706;41.844;26.082;2023-12-20T02:55:10;101115.03;;;5.57;77.43
9335;BME280;4706;41.844;26.082;2023-12-20T02:57:36;101122.47;;;5.62;77.73
9335;BME280;4706;41.844;26.082;2023-12-20T03:00:10;101115.88;;;5.57;77.39
9335;BME280;4706;41.844;26.082;2023-12-20T03:02:36;101105.09;;;5.46;77.55
9335;BME280;4706;41.844;26.082;2023-12-20T03:05:02;101101.09;;;5.53;78.23
9335;BME280;4706;41.844;26.082;2023-12-20T03:07:27;101099.34;;;5.47;77.80
9335;BME280;4706;41.844;26.082;2023-12-20T03:09:53;101075.88;;;5.46;77.82
9335;BME280;4706;41.844;26.082;2023-12-20T03:12:18;101081.97;;;5.53;77.40
9335;BME280;4706;41.844;26.082;2023-12-20T03:14:44;101088.75;;;5.51;77.15
9335;BME280;4706;41.844;26.082;2023-12-20T03:17:10;101084.38;;;5.50;77.59
9335;BME280;4706;41.844;26.082;2023-12-20T03:19:35;101084.94;;;5.52;77.28
9335;BME280;4706;41.844;26.082;2023-12-20T03:22:01;101087.44;;;5.53;76.37
9335;BME280;4706;41.844;26.082;2023-12-20T03:24:27;101068.53;;;5.47;76.73
9335;BME280;4706;41.844;26.082;2023-12-20T03:26:52;101078.97;;;5.33;77.12
9335;BME280;4706;41.844;26.082;2023-12-20T03:29:18;101080.19;;;5.20;77.21
9335;BME280;4706;41.844;26.082;2023-12-20T03:31:43;101083.78;;;5.04;77.54
9335;BME280;4706;41.844;26.082;2023-12-20T03:34:09;101081.03;;;5.04;77.25
9335;BME280;4706;41.844;26.082;2023-12-20T03:36:34;101075.34;;;5.05;77.88
9335;BME280;4706;41.844;26.082;2023-12-20T03:39:00;101075.69;;;5.09;77.65
9335;BME280;4706;41.844;26.082;2023-12-20T03:41:25;101063.03;;;5.03;77.59
9335;BME280;4706;41.844;26.082;2023-12-20T03:43:50;101059.56;;;5.07;77.35
9335;BME280;4706;41.844;26.082;2023-12-20T03:46:16;101062.72;;;4.99;76.34
9335;BME280;4706;41.844;26.082;2023-12-20T03:48:41;101059.94;;;4.77;76.81
9335;BME280;4706;41.844;26.082;2023-12-20T03:51:07;101055.53;;;4.71;76.28
9335;BME280;4706;41.844;26.082;2023-12-20T03:53:32;101061.13;;;4.81;76.27
9335;BME280;4706;41.844;26.082;2023-12-20T03:55:58;101059.63;;;4.74;75.63
9335;BME280;4706;41.844;26.082;2023-12-20T03:58:24;101065.28;;;4.67;75.90
9335;BME280;4706;41.844;26.082;2023-12-20T04:00:49;101072.28;;;4.63;75.90
9335;BME280;4706;41.844;26.082;2023-12-20T04:03:15;101059.00;;;4.67;76.28
9335;BME280;4706;41.844;26.082;2023-12-20T04:05:40;101072.69;;;4.72;76.32
9335;BME280;4706;41.844;26.082;2023-12-20T04:08:07;101070.47;;;4.69;76.70
9335;BME280;4706;41.844;26.082;2023-12-20T04:10:32;101073.59;;;4.60;77.20
9335;BME280;4706;41.844;26.082;2023-12-20T04:12:58;101078.31;;;4.65;77.93
9335;BME280;4706;41.844;26.082;2023-12-20T04:15:23;101068.13;;;4.77;77.71
9335;BME280;4706;41.844;26.082;2023-12-20T04:17:49;101069.31;;;4.81;76.46
9335;BME280;4706;41.844;26.082;2023-12-20T04:20:14;101063.00;;;4.81;77.46
9335;BME280;4706;41.844;26.082;2023-12-20T04:22:40;101052.97;;;4.81;77.45
9335;BME280;4706;41.844;26.082;2023-12-20T04:25:05;101056.63;;;4.92;77.43
9335;BME280;4706;41.844;26.082;2023-12-20T04:27:31;101052.75;;;4.88;77.14
9335;BME280;4706;41.844;26.082;2023-12-20T04:29:57;101044.50;;;4.83;77.62
9335;BME280;4706;41.844;26.082;2023-12-20T04:32:22;101048.31;;;4.82;77.94
9335;BME280;4706;41.844;26.082;2023-12-20T04:34:48;101063.59;;;4.83;77.92
9335;BME280;4706;41.844;26.082;2023-12-20T04:37:13;101068.72;;;4.79;77.19
9335;BME280;4706;41.844;26.082;2023-12-20T04:39:38;101076.56;;;4.76;77.13
9335;BME280;4706;41.844;26.082;2023-12-20T04:42:05;101071.53;;;4.68;77.43
9335;BME280;4706;41.844;26.082;2023-12-20T04:44:31;101075.75;;;4.75;77.81
9335;BME280;4706;41.844;26.082;2023-12-20T04:46:56;101077.72;;;4.80;77.54
9335;BME280;4706;41.844;26.082;2023-12-20T04:49:22;101076.41;;;4.82;77.40
9335;BME280;4706;41.844;26.082;2023-12-20T04:51:48;101078.88;;;4.84;77.43
9335;BME280;4706;41.844;26.082;2023-12-20T04:54:14;101057.00;;;4.79;77.17
9335;BME280;4706;41.844;26.082;2023-12-20T04:56:39;101065.22;;;4.84;76.37
9335;BME280;4706;41.844;26.082;2023-12-20T04:59:05;101073.75;;;4.87;76.55
9335;BME280;4706;41.844;26.082;2023-12-20T05:01:31;101067.19;;;4.88;75.91
9335;BME280;4706;41.844;26.082;2023-12-20T05:03:56;101061.84;;;4.94;76.36
9335;BME280;4706;41.844;26.082;2023-12-20T05:06:22;101057.44;;;4.93;76.68
9335;BME280;4706;41.844;26.082;2023-12-20T05:08:47;101050.94;;;4.94;76.12
9335;BME280;4706;41.844;26.082;2023-12-20T05:11:12;101049.78;;;4.90;75.94
9335;BME280;4706;41.844;26.082;2023-12-20T05:13:39;101039.94;;;4.88;76.24
9335;BME280;4706;41.844;26.082;2023-12-20T05:16:05;101039.88;;;4.83;77.04
9335;BME280;4706;41.844;26.082;2023-12-20T05:18:31;101031.22;;;4.86;76.77
9335;BME280;4706;41.844;26.082;2023-12-20T05:20:56;101030.31;;;4.81;76.57
9335;BME280;4706;41.844;26.082;2023-12-20T05:23:22;101025.72;;;4.65;75.99
9335;BME280;4706;41.844;26.082;2023-12-20T05:25:47;101031.16;;;4.65;76.96
9335;BME280;4706;41.844;26.082;2023-12-20T05:28:14;101020.38;;;4.53;77.35
9335;BME280;4706;41.844;26.082;2023-12-20T05:30:40;101027.38;;;4.49;77.05
9335;BME280;4706;41.844;26.082;2023-12-20T05:33:05;101022.84;;;4.37;76.64
9335;BME280;4706;41.844;26.082;2023-12-20T05:35:31;101017.31;;;4.32;77.11
9335;BME280;4706;41.844;26.082;2023-12-20T05:37:56;101016.09;;;4.23;77.64
9335;BME280;4706;41.844;26.082;2023-12-20T05:40:22;101009.50;;;4.19;77.55
9335;BME280;4706;41.844;26.082;2023-12-20T05:42:47;101017.41;;;4.21;77.94
9335;BME280;4706;41.844;26.082;2023-12-20T05:45:14;100988.28;;;4.21;77.90
9335;BME280;4706;41.844;26.082;2023-12-20T05:47:40;100991.25;;;4.20;78.01
9335;BME280;4706;41.844;26.082;2023-12-20T05:50:05;101008.28;;;4.10;77.76
9335;BME280;4706;41.844;26.082;2023-12-20T05:52:31;101012.31;;;4.07;77.96
9335;BME280;4706;41.844;26.082;2023-12-20T05:54:56;101012.63;;;4.11;78.09
9335;BME280;4706;41.844;26.082;2023-12-20T05:57:27;100988.22;;;4.16;78.41
9335;BME280;4706;41.844;26.082;2023-12-20T05:59:52;101000.41;;;4.30;78.36
9335;BME280;4706;41.844;26.082;2023-12-20T06:02:18;101000.97;;;4.32;78.50
9335;BME280;4706;41.844;26.082;2023-12-20T06:04:43;101006.34;;;4.27;78.64
9335;BME280;4706;41.844;26.082;2023-12-20T06:07:12;100987.63;;;4.31;78.32
9335;BME280;4706;41.844;26.082;2023-12-20T06:09:37;100999.56;;;4.47;79.15
9335;BME280;4706;41.844;26.082;2023-12-20T06:12:03;100991.72;;;4.50;80.01
9335;BME280;4706;41.844;26.082;2023-12-20T06:14:29;100989.09;;;4.55;79.19
9335;BME280;4706;41.844;26.082;2023-12-20T06:16:56;100997.16;;;4.50;78.46
9335;BME280;4706;41.844;26.082;2023-12-20T06:19:22;100999.63;;;4.69;78.93
9335;BME280;4706;41.844;26.082;2023-12-20T06:21:47;100998.69;;;4.80;78.51
9335;BME280;4706;41.844;26.082;2023-12-20T06:24:13;100973.16;;;4.86;78.42
9335;BME280;4706;41.844;26.082;2023-12-20T06:26:38;100982.41;;;5.07;78.12
9335;BME280;4706;41.844;26.082;2023-12-20T06:29:03;100974.81;;;5.09;77.75
9335;BME280;4706;41.844;26.082;2023-12-20T06:31:29;100979.94;;;5.27;77.86
9335;BME280;4706;41.844;26.082;2023-12-20T06:33:55;100966.06;;;5.34;77.10
9335;BME280;4706;41.844;26.082;2023-12-20T06:36:31;100972.78;;;5.48;76.42
9335;BME280;4706;41.844;26.082;2023-12-20T06:38:57;100978.66;;;5.62;75.66
9335;BME280;4706;41.844;26.082;2023-12-20T06:41:23;100974.16;;;5.78;75.68
9335;BME280;4706;41.844;26.082;2023-12-20T06:43:50;100985.31;;;5.98;74.31
9335;BME280;4706;41.844;26.082;2023-12-20T06:46:15;100987.25;;;6.03;72.51
9335;BME280;4706;41.844;26.082;2023-12-20T06:48:42;100987.88;;;6.15;72.65
9335;BME280;4706;41.844;26.082;2023-12-20T06:51:12;100979.59;;;6.05;72.48
9335;BME280;4706;41.844;26.082;2023-12-20T06:53:38;100989.53;;;6.16;73.97
9335;BME280;4706;41.844;26.082;2023-12-20T06:56:03;100958.22;;;6.29;73.24
9335;BME280;4706;41.844;26.082;2023-12-20T06:58:29;100980.50;;;6.53;73.04
9335;BME280;4706;41.844;26.082;2023-12-20T07:00:54;100984.16;;;6.69;72.53
9335;BME280;4706;41.844;26.082;2023-12-20T07:03:19;100986.88;;;6.64;72.12
9335;BME280;4706;41.844;26.082;2023-12-20T07:05:45;100976.25;;;6.72;71.90
9335;BME280;4706;41.844;26.082;2023-12-20T07:08:11;100977.13;;;6.88;70.95
9335;BME280;4706;41.844;26.082;2023-12-20T07:10:39;100977.53;;;7.07;71.53
9335;BME280;4706;41.844;26.082;2023-12-20T07:13:04;100980.84;;;7.19;71.21
9335;BME280;4706;41.844;26.082;2023-12-20T07:15:30;100971.00;;;7.23;71.06
9335;BME280;4706;41.844;26.082;2023-12-20T07:17:56;100970.19;;;7.28;69.77
9335;BME280;4706;41.844;26.082;2023-12-20T07:20:24;100967.78;;;7.47;71.36
9335;BME280;4706;41.844;26.082;2023-12-20T07:22:49;100970.81;;;7.71;71.36
9335;BME280;4706;41.844;26.082;2023-12-20T07:25:15;100970.03;;;7.86;70.66
9335;BME280;4706;41.844;26.082;2023-12-20T07:27:40;100966.22;;;8.02;69.86
9335;BME280;4706;41.844;26.082;2023-12-20T07:30:06;100968.94;;;8.22;68.80
9335;BME280;4706;41.844;26.082;2023-12-20T07:32:31;100957.16;;;8.42;67.36
9335;BME280;4706;41.844;26.082;2023-12-20T07:34:57;100960.72;;;8.48;67.18
9335;BME280;4706;41.844;26.082;2023-12-20T07:37:23;100947.00;;;8.58;67.18
9335;BME280;4706;41.844;26.082;2023-12-20T07:39:48;100942.03;;;8.65;66.96
9335;BME280;4706;41.844;26.082;2023-12-20T07:42:14;100948.56;;;8.80;66.62
9335;BME280;4706;41.844;26.082;2023-12-20T07:44:39;100945.53;;;8.91;67.37
9335;BME280;4706;41.844;26.082;2023-12-20T07:47:05;100943.22;;;9.09;66.50
9335;BME280;4706;41.844;26.082;2023-12-20T07:49:31;100937.91;;;9.33;65.38
9335;BME280;4706;41.844;26.082;2023-12-20T07:51:57;100940.09;;;9.31;65.15
9335;BME280;4706;41.844;26.082;2023-12-20T07:54:22;100940.41;;;9.29;65.78
9335;BME280;4706;41.844;26.082;2023-12-20T07:56:48;100937.47;;;9.10;66.43
9335;BME280;4706;41.844;26.082;2023-12-20T07:59:14;100922.59;;;9.21;66.20
9335;BME280;4706;41.844;26.082;2023-12-20T08:01:39;100925.25;;;9.37;65.88
9335;BME280;4706;41.844;26.082;2023-12-20T08:04:05;100929.63;;;9.38;65.56
9335;BME280;4706;41.844;26.082;2023-12-20T08:06:30;100920.28;;;9.39;65.78
9335;BME280;4706;41.844;26.082;2023-12-20T08:08:55;100929.56;;;9.48;65.68
9335;BME280;4706;41.844;26.082;2023-12-20T08:11:21;100913.66;;;9.45;65.99
9335;BME280;4706;41.844;26.082;2023-12-20T08:13:46;100916.94;;;9.47;66.85
9335;BME280;4706;41.844;26.082;2023-12-20T08:16:12;100922.81;;;9.69;67.23
9335;BME280;4706;41.844;26.082;2023-12-20T08:18:39;100909.56;;;9.77;66.84
9335;BME280;4706;41.844;26.082;2023-12-20T08:21:05;100916.59;;;9.93;66.74
9335;BME280;4706;41.844;26.082;2023-12-20T08:23:33;100903.81;;;10.07;66.98
9335;BME280;4706;41.844;26.082;2023-12-20T08:26:06;100900.34;;;9.96;65.48
9335;BME280;4706;41.844;26.082;2023-12-20T08:28:32;100842.88;;;10.00;67.09
9335;BME280;4706;41.844;26.082;2023-12-20T08:30:58;100878.75;;;10.43;66.58
9335;BME280;4706;41.844;26.082;2023-12-20T08:33:24;100865.19;;;10.70;64.44
9335;BME280;4706;41.844;26.082;2023-12-20T08:35:49;100871.03;;;10.88;64.73
9335;BME280;4706;41.844;26.082;2023-12-20T08:38:15;100870.97;;;10.93;64.35
9335;BME280;4706;41.844;26.082;2023-12-20T08:40:40;100868.19;;;11.17;64.17
9335;BME280;4706;41.844;26.082;2023-12-20T08:43:06;100861.81;;;10.98;63.34
9335;BME280;4706;41.844;26.082;2023-12-20T08:45:32;100868.31;;;11.26;64.29
9335;BME280;4706;41.844;26.082;2023-12-20T08:47:57;100867.09;;;11.32;64.34
9335;BME280;4706;41.844;26.082;2023-12-20T08:50:23;100859.59;;;11.37;63.87
9335;BME280;4706;41.844;26.082;2023-12-20T08:52:48;100856.00;;;11.56;63.40
9335;BME280;4706;41.844;26.082;2023-12-20T08:55:14;100849.72;;;11.69;63.41
9335;BME280;4706;41.844;26.082;2023-12-20T08:57:41;100841.75;;;11.86;62.39
9335;BME280;4706;41.844;26.082;2023-12-20T09:00:07;100832.47;;;11.96;63.38
9335;BME280;4706;41.844;26.082;2023-12-20T09:02:33;100823.72;;;12.08;62.44
9335;BME280;4706;41.844;26.082;2023-12-20T09:05:02;100820.94;;;12.22;61.36
9335;BME280;4706;41.844;26.082;2023-12-20T09:07:28;100819.44;;;12.15;62.30
9335;BME280;4706;41.844;26.082;2023-12-20T09:09:55;100807.38;;;12.25;62.35
9335;BME280;4706;41.844;26.082;2023-12-20T09:12:21;100794.28;;;12.17;62.72
9335;BME280;4706;41.844;26.082;2023-12-20T09:14:48;100805.53;;;12.34;62.10
9335;BME280;4706;41.844;26.082;2023-12-20T09:17:15;100797.47;;;12.38;61.78
9335;BME280;4706;41.844;26.082;2023-12-20T09:19:42;100784.56;;;12.47;62.58
9335;BME280;4706;41.844;26.082;2023-12-20T09:22:09;100774.22;;;12.67;61.95
9335;BME280;4706;41.844;26.082;2023-12-20T09:24:35;100774.06;;;12.85;60.92
9335;BME280;4706;41.844;26.082;2023-12-20T09:27:00;100763.78;;;12.77;59.96
9335;BME280;4706;41.844;26.082;2023-12-20T09:29:26;100754.88;;;12.80;60.39
9335;BME280;4706;41.844;26.082;2023-12-20T09:31:51;100763.50;;;12.65;61.68
9335;BME280;4706;41.844;26.082;2023-12-20T09:34:17;100753.97;;;12.71;61.39
9335;BME280;4706;41.844;26.082;2023-12-20T09:36:43;100748.94;;;12.87;61.34
9335;BME280;4706;41.844;26.082;2023-12-20T09:39:16;100740.03;;;12.90;61.44
9335;BME280;4706;41.844;26.082;2023-12-20T09:41:56;100733.59;;;12.81;62.67
9335;BME280;4706;41.844;26.082;2023-12-20T09:44:24;100728.69;;;12.78;62.87
9335;BME280;4706;41.844;26.082;2023-12-20T09:46:50;100727.53;;;12.93;63.24
9335;BME280;4706;41.844;26.082;2023-12-20T09:49:17;100721.56;;;12.99;63.55
9335;BME280;4706;41.844;26.082;2023-12-20T09:51:43;100719.59;;;12.77;64.10
9335;BME280;4706;41.844;26.082;2023-12-20T09:54:14;100712.75;;;12.75;64.21
9335;BME280;4706;41.844;26.082;2023-12-20T09:56:40;100703.41;;;12.62;65.06
9335;BME280;4706;41.844;26.082;2023-12-20T09:59:06;100702.81;;;12.51;65.49
9335;BME280;4706;41.844;26.082;2023-12-20T10:01:33;100691.72;;;12.29;66.63
9335;BME280;4706;41.844;26.082;2023-12-20T10:04:00;100681.28;;;12.39;66.89
9335;BME280;4706;41.844;26.082;2023-12-20T10:06:26;100692.03;;;12.63;66.67
9335;BME280;4706;41.844;26.082;2023-12-20T10:08:52;100690.38;;;12.76;66.85
9335;BME280;4706;41.844;26.082;2023-12-20T10:11:18;100683.06;;;12.72;66.29
9335;BME280;4706;41.844;26.082;2023-12-20T10:13:47;100688.00;;;12.83;66.06
9335;BME280;4706;41.844;26.082;2023-12-20T10:16:13;100682.47;;;12.61;67.01
9335;BME280;4706;41.844;26.082;2023-12-20T10:18:39;100676.19;;;12.33;66.85
9335;BME280;4706;41.844;26.082;2023-12-20T10:21:06;100667.91;;;12.47;67.08
9335;BME280;4706;41.844;26.082;2023-12-20T10:23:32;100659.22;;;12.39;67.65
9335;BME280;4706;41.844;26.082;2023-12-20T10:25:58;100658.91;;;12.41;67.76
9335;BME280;4706;41.844;26.082;2023-12-20T10:28:24;100646.06;;;12.36;68.32
9335;BME280;4706;41.844;26.082;2023-12-20T10:30:53;100640.56;;;12.59;67.84
9335;BME280;4706;41.844;26.082;2023-12-20T10:33:30;100642.50;;;12.58;68.11
9335;BME280;4706;41.844;26.082;2023-12-20T10:35:57;100624.44;;;12.52;68.86
9335;BME280;4706;41.844;26.082;2023-12-20T10:38:23;100623.63;;;12.74;68.85
9335;BME280;4706;41.844;26.082;2023-12-20T10:40:48;100610.44;;;12.94;68.61
9335;BME280;4706;41.844;26.082;2023-12-20T10:43:15;100612.69;;;13.14;67.62
9335;BME280;4706;41.844;26.082;2023-12-20T10:45:41;100612.81;;;13.09;68.44
9335;BME280;4706;41.844;26.082;2023-12-20T10:48:10;100596.81;;;12.97;68.87
9335;BME280;4706;41.844;26.082;2023-12-20T10:50:36;100595.53;;;12.95;69.58
9335;BME280;4706;41.844;26.082;2023-12-20T10:53:03;100594.94;;;13.38;69.38
9335;BME280;4706;41.844;26.082;2023-12-20T10:55:29;100595.63;;;13.43;68.23
9335;BME280;4706;41.844;26.082;2023-12-20T10:58:08;100592.06;;;13.51;67.55
9335;BME280;4706;41.844;26.082;2023-12-20T11:00:39;100586.09;;;13.58;67.42
9335;BME280;4706;41.844;26.082;2023-12-20T11:03:09;100584.63;;;13.60;66.95
9335;BME280;4706;41.844;26.082;2023-12-20T11:08:51;100581.34;;;13.19;68.17
9335;BME280;4706;41.844;26.082;2023-12-20T11:11:35;100563.94;;;13.09;68.99
9335;BME280;4706;41.844;26.082;2023-12-20T11:14:07;100565.50;;;13.24;68.51
9335;BME280;4706;41.844;26.082;2023-12-20T11:16:37;100548.84;;;13.16;69.36
9335;BME280;4706;41.844;26.082;2023-12-20T11:19:05;100561.19;;;13.09;70.13
9335;BME280;4706;41.844;26.082;2023-12-20T11:21:31;100560.00;;;13.02;71.31
9335;BME280;4706;41.844;26.082;2023-12-20T11:23:56;100542.44;;;13.29;69.54
9335;BME280;4706;41.844;26.082;2023-12-20T11:26:22;100546.19;;;13.42;69.46
9335;BME280;4706;41.844;26.082;2023-12-20T11:28:51;100540.03;;;13.45;69.45
9335;BME280;4706;41.844;26.082;2023-12-20T11:31:17;100536.75;;;13.34;68.66
9335;BME280;4706;41.844;26.082;2023-12-20T11:33:42;100535.38;;;13.23;68.66
9335;BME280;4706;41.844;26.082;2023-12-20T11:36:14;100531.06;;;13.30;69.41
9335;BME280;4706;41.844;26.082;2023-12-20T11:38:56;100525.84;;;13.29;69.16
9335;BME280;4706;41.844;26.082;2023-12-20T11:41:23;100519.88;;;13.35;68.81
9335;BME280;4706;41.844;26.082;2023-12-20T11:43:56;100510.91;;;13.30;68.57
9335;BME280;4706;41.844;26.082;2023-12-20T11:46:22;100509.94;;;13.34;68.44
9335;BME280;4706;41.844;26.082;2023-12-20T11:48:47;100501.81;;;13.38;68.28
9335;BME280;4706;41.844;26.082;2023-12-20T11:51:13;100487.31;;;13.24;68.27
9335;BME280;4706;41.844;26.082;2023-12-20T11:53:42;100495.47;;;13.29;68.23
9335;BME280;4706;41.844;26.082;2023-12-20T11:56:08;100491.63;;;13.07;68.61
9335;BME280;4706;41.844;26.082;2023-12-20T11:58:35;100484.31;;;13.03;69.65
9335;BME280;4706;41.844;26.082;2023-12-20T12:01:01;100494.03;;;13.00;69.39
9335;BME280;4706;41.844;26.082;2023-12-20T12:03:30;100487.41;;;13.01;70.29
9335;BME280;4706;41.844;26.082;2023-12-20T12:05:55;100478.78;;;12.94;69.87
9335;BME280;4706;41.844;26.082;2023-12-20T12:08:21;100464.78;;;12.91;70.94
9335;BME280;4706;41.844;26.082;2023-12-20T12:10:46;100472.47;;;13.11;70.65
9335;BME280;4706;41.844;26.082;2023-12-20T12:13:12;100462.38;;;12.98;71.47
9335;BME280;4706;41.844;26.082;2023-12-20T12:15:39;100465.41;;;12.87;70.67
9335;BME280;4706;41.844;26.082;2023-12-20T12:18:05;100460.53;;;12.84;70.88
9335;BME280;4706;41.844;26.082;2023-12-20T12:20:31;100459.56;;;12.89;71.88
9335;BME280;4706;41.844;26.082;2023-12-20T12:23:01;100447.38;;;12.81;71.77
9335;BME280;4706;41.844;26.082;2023-12-20T12:25:28;100444.25;;;12.74;72.64
9335;BME280;4706;41.844;26.082;2023-12-20T12:27:55;100434.50;;;12.68;73.07
9335;BME280;4706;41.844;26.082;2023-12-20T12:30:21;100433.22;;;12.74;73.35
9335;BME280;4706;41.844;26.082;2023-12-20T12:32:47;100434.97;;;12.70;72.74
9335;BME280;4706;41.844;26.082;2023-12-20T12:35:14;100444.56;;;12.64;74.64
9335;BME280;4706;41.844;26.082;2023-12-20T12:37:40;100441.03;;;12.81;73.50
9335;BME280;4706;41.844;26.082;2023-12-20T12:40:13;100437.63;;;12.75;73.13
9335;BME280;4706;41.844;26.082;2023-12-20T12:42:40;100425.34;;;12.59;74.30
9335;BME280;4706;41.844;26.082;2023-12-20T12:45:07;100425.41;;;12.36;75.56
9335;BME280;4706;41.844;26.082;2023-12-20T12:47:33;100435.19;;;12.43;75.35
9335;BME280;4706;41.844;26.082;2023-12-20T12:49:59;100438.16;;;12.24;76.93
9335;BME280;4706;41.844;26.082;2023-12-20T12:52:25;100425.50;;;12.23;77.30
9335;BME280;4706;41.844;26.082;2023-12-20T12:54:52;100428.19;;;12.14;77.82
9335;BME280;4706;41.844;26.082;2023-12-20T12:57:18;100419.63;;;12.15;78.19
9335;BME280;4706;41.844;26.082;2023-12-20T12:59:44;100417.44;;;12.04;78.29
9335;BME280;4706;41.844;26.082;2023-12-20T13:02:12;100427.72;;;11.89;79.08
9335;BME280;4706;41.844;26.082;2023-12-20T13:04:39;100416.91;;;11.79;79.52